Time;durP1;ratioP1;P1;durP2;ratioP2;P2;SDS_P1;SDS_P2;PMS_P1;PMS_P2;Temp;Humidity;BMP_temperature;BMP_pressure;BME280_temperature;BME280_humidity;BME280_pressure;Samples;Min_cycle;Max_cycle;Signal;HPM_P1;HPM_P2
2023/06/24 00:00:07;;;;;;;15.38;12.63;;;;;;;10.92;100.00;93906.84;2102208;28;20020;-85
2023/06/24 00:01:16;;;;;;;16.00;13.35;;;;;;;10.90;100.00;93909.16;2096822;28;20074;-84
2023/06/24 00:02:27;;;;;;;17.27;14.15;;;;;;;10.89;100.00;93910.28;2089605;28;20131;-83
2023/06/24 00:03:37;;;;;;;18.27;14.05;;;;;;;10.97;100.00;93912.50;2089179;28;20483;-83
2023/06/24 00:04:43;;;;;;;18.77;14.10;;;;;;;10.93;100.00;93906.47;2093437;28;20017;-82
2023/06/24 00:05:56;;;;;;;17.45;13.43;;;;;;;10.99;100.00;93901.41;2094157;28;20032;-85
2023/06/24 00:07:06;;;;;;;20.38;12.90;;;;;;;11.02;100.00;93904.06;2091318;28;20063;-82
2023/06/24 00:08:14;;;;;;;16.10;13.05;;;;;;;11.01;100.00;93905.19;2086020;28;20324;-83
2023/06/24 00:09:22;;;;;;;15.73;11.88;;;;;;;10.87;100.00;93905.34;2084981;28;20387;-83
2023/06/24 00:10:29;;;;;;;18.00;11.25;;;;;;;10.85;100.00;93899.66;2095412;28;20028;-83
2023/06/24 00:11:37;;;;;;;13.80;10.30;;;;;;;10.95;100.00;93906.81;2091355;28;20033;-83
2023/06/24 00:12:44;;;;;;;15.68;10.38;;;;;;;10.91;100.00;93900.72;2101250;28;20016;-84
2023/06/24 00:13:51;;;;;;;18.52;10.80;;;;;;;10.89;100.00;93897.72;2106398;28;20027;-83
2023/06/24 00:15:02;;;;;;;16.80;10.10;;;;;;;10.86;100.00;93903.84;2107356;28;20131;-84
2023/06/24 00:16:09;;;;;;;14.25;11.63;;;;;;;10.78;100.00;93913.09;2097344;28;20036;-85
2023/06/24 00:17:12;;;;;;;14.45;9.55;;;;;;;10.82;100.00;93908.47;2081933;28;20052;-83
2023/06/24 00:18:24;;;;;;;14.35;9.82;;;;;;;10.82;100.00;93906.56;2077252;28;20033;-84
2023/06/24 00:19:31;;;;;;;14.38;10.23;;;;;;;10.84;100.00;93911.50;2081730;28;20021;-85
2023/06/24 00:20:43;;;;;;;13.32;9.90;;;;;;;10.79;100.00;93906.56;2078525;28;20022;-82
2023/06/24 00:21:52;;;;;;;13.02;9.50;;;;;;;10.76;100.00;93910.81;2084516;28;20079;-82
2023/06/24 00:23:01;;;;;;;12.20;8.82;;;;;;;10.82;100.00;93908.47;2096737;28;20452;-83
2023/06/24 00:24:06;;;;;;;11.40;8.75;;;;;;;10.79;100.00;93910.00;2104502;28;20362;-85
2023/06/24 00:25:12;;;;;;;11.77;9.27;;;;;;;10.83;100.00;93908.06;2089673;28;20040;-85
2023/06/24 00:26:21;;;;;;;11.55;8.55;;;;;;;10.81;100.00;93913.06;2097560;28;20025;-84
2023/06/24 00:27:30;;;;;;;12.27;8.65;;;;;;;10.73;100.00;93913.53;2102856;28;20092;-82
2023/06/24 00:28:33;;;;;;;11.27;8.77;;;;;;;10.72;100.00;93915.44;2092939;28;20048;-83
2023/06/24 00:29:43;;;;;;;10.73;8.55;;;;;;;10.64;100.00;93918.56;2087244;28;20983;-83
2023/06/24 00:30:51;;;;;;;12.93;9.05;;;;;;;10.64;100.00;93918.56;2085539;28;20050;-82
2023/06/24 00:31:59;;;;;;;9.48;8.32;;;;;;;10.55;100.00;93922.47;2082727;28;20026;-85
2023/06/24 00:33:10;;;;;;;9.55;8.20;;;;;;;10.49;100.00;93915.25;2091581;28;20156;-83
2023/06/24 00:34:20;;;;;;;14.52;8.65;;;;;;;10.54;100.00;93914.84;2107483;28;20047;-83
2023/06/24 00:35:27;;;;;;;12.77;9.27;;;;;;;10.61;100.00;93922.78;2107866;28;20024;-82
2023/06/24 00:36:36;;;;;;;12.25;8.48;;;;;;;10.53;100.00;93919.41;2107886;28;20019;-83
2023/06/24 00:37:45;;;;;;;11.18;8.30;;;;;;;10.53;100.00;93915.97;2114475;28;20047;-84
2023/06/24 00:38:52;;;;;;;14.77;9.20;;;;;;;10.52;100.00;93911.78;2110583;28;20081;-82
2023/06/24 00:39:58;;;;;;;13.75;9.10;;;;;;;10.59;100.00;93909.81;2104586;28;20036;-83
2023/06/24 00:41:08;;;;;;;15.35;9.15;;;;;;;10.62;100.00;93910.94;2092806;28;20519;-83
2023/06/24 00:42:29;;;;;;;13.77;9.20;;;;;;;10.60;100.00;93921.28;2111038;28;20115;-83
2023/06/24 00:43:39;;;;;;;15.27;9.35;;;;;;;10.54;100.00;93920.94;2100281;28;20075;-84
2023/06/24 00:44:47;;;;;;;13.85;8.90;;;;;;;10.73;100.00;93922.31;2092716;28;20017;-82
2023/06/24 00:45:57;;;;;;;11.57;9.30;;;;;;;10.70;100.00;93911.63;2091264;28;20436;-84
2023/06/24 00:47:04;;;;;;;14.45;9.05;;;;;;;10.71;100.00;93916.59;2088668;28;20059;-83
2023/06/24 00:48:10;;;;;;;13.23;8.98;;;;;;;10.59;100.00;93914.41;2085318;28;20106;-83
2023/06/24 00:49:16;;;;;;;12.43;9.00;;;;;;;10.49;100.00;93921.38;2088790;28;20032;-83
2023/06/24 00:50:24;;;;;;;11.15;8.63;;;;;;;10.46;100.00;93919.50;2105452;28;20047;-83
2023/06/24 00:51:31;;;;;;;13.43;9.25;;;;;;;10.41;100.00;93919.16;2104367;28;20031;-84
2023/06/24 00:52:38;;;;;;;12.80;8.93;;;;;;;10.42;100.00;93918.00;2099219;28;20028;-82
2023/06/24 00:53:42;;;;;;;14.38;8.75;;;;;;;10.27;100.00;93922.69;2087248;28;20040;-82
2023/06/24 00:54:53;;;;;;;16.42;9.10;;;;;;;10.33;100.00;93924.56;2082683;28;20026;-82
2023/06/24 00:56:02;;;;;;;14.43;9.32;;;;;;;10.26;100.00;93921.16;2091799;28;21389;-81
2023/06/24 00:57:09;;;;;;;15.25;8.95;;;;;;;10.32;100.00;93916.94;2087401;28;20033;-82
2023/06/24 00:58:16;;;;;;;12.18;8.77;;;;;;;10.32;100.00;93914.25;2091806;28;20025;-82
2023/06/24 00:59:20;;;;;;;12.45;8.90;;;;;;;10.34;100.00;93922.63;2101049;28;20029;-82
2023/06/24 01:00:27;;;;;;;14.20;8.68;;;;;;;10.36;100.00;93920.34;2091052;28;20035;-82
2023/06/24 01:01:38;;;;;;;17.00;10.07;;;;;;;10.36;100.00;93919.56;2082137;28;20029;-83
2023/06/24 01:02:45;;;;;;;12.20;9.05;;;;;;;10.30;100.00;93913.88;2090269;28;20409;-82
2023/06/24 01:03:50;;;;;;;13.43;9.93;;;;;;;10.25;100.00;93915.06;2099334;28;20034;-82
2023/06/24 01:04:54;;;;;;;16.90;9.32;;;;;;;10.26;100.00;93919.25;2088725;28;20043;-82
2023/06/24 01:06:02;;;;;;;11.63;8.55;;;;;;;10.23;100.00;93916.59;2085957;28;20025;-84
2023/06/24 01:07:09;;;;;;;13.82;10.20;;;;;;;10.23;100.00;93921.94;2088858;28;20068;-82
2023/06/24 01:08:15;;;;;;;11.82;8.77;;;;;;;10.24;100.00;93918.13;2089088;28;20013;-83
2023/06/24 01:09:23;;;;;;;17.83;9.52;;;;;;;10.21;100.00;93914.31;2100466;28;20504;-83
2023/06/24 01:10:31;;;;;;;13.52;9.18;;;;;;;10.29;100.00;93917.72;2092021;28;20130;-82
2023/06/24 01:11:39;;;;;;;12.77;9.30;;;;;;;10.20;100.00;93918.13;2095331;28;20025;-82
2023/06/24 01:12:47;;;;;;;11.90;9.23;;;;;;;10.20;100.00;93915.47;2104616;28;20037;-83
2023/06/24 01:13:54;;;;;;;14.75;8.85;;;;;;;10.13;100.00;93914.75;2096031;28;20354;-82
2023/06/24 01:15:04;;;;;;;17.55;9.68;;;;;;;10.17;100.00;93907.47;2088119;28;20056;-83
2023/06/24 01:16:19;;;;;;;;;;;;;;;10.13;100.00;93906.72;2081393;28;20120;-82
2023/06/24 01:17:32;;;;;;;17.15;8.98;;;;;;;10.10;100.00;93910.97;2083354;28;19913;-84
2023/06/24 01:19:08;;;;;;;14.48;9.40;;;;;;;9.94;100.00;93906.09;2093903;28;20025;-83
2023/06/24 01:21:02;;;;;;;15.82;9.48;;;;;;;10.13;100.00;93904.06;2103382;28;20108;-83
2023/06/24 01:22:40;;;;;;;15.32;9.38;;;;;;;10.22;100.00;93904.38;2074114;28;20578;-82
2023/06/24 01:24:04;;;;;;;17.80;9.38;;;;;;;10.12;100.00;93907.88;2069471;28;20578;-82
2023/06/24 01:25:49;;;;;;;16.98;9.27;;;;;;;10.16;100.00;93911.28;2090756;28;20028;-82
2023/06/24 01:27:37;;;;;;;16.50;10.13;;;;;;;9.98;100.00;93914.09;2101728;28;20038;-81
2023/06/24 01:29:08;;;;;;;16.05;9.50;;;;;;;9.99;100.00;93904.91;2098053;28;20051;-84
2023/06/24 01:30:46;;;;;;;17.40;9.52;;;;;;;10.14;100.00;93910.91;2102541;28;20028;-82
2023/06/24 01:32:10;;;;;;;15.48;9.65;;;;;;;10.14;100.00;93908.25;2099064;28;20024;-84
2023/06/24 01:33:29;;;;;;;13.95;9.70;;;;;;;10.15;100.00;93899.84;2098838;28;20056;-82
2023/06/24 01:34:45;;;;;;;14.93;9.57;;;;;;;10.25;100.00;93898.28;2099813;28;20082;-81
2023/06/24 01:35:54;;;;;;;15.30;9.43;;;;;;;10.05;100.00;93901.47;2096300;28;20082;-84
2023/06/24 01:37:13;;;;;;;17.05;10.07;;;;;;;10.11;100.00;93904.47;2088572;28;20059;-82
2023/06/24 01:38:45;;;;;;;20.98;9.70;;;;;;;9.97;100.00;93904.56;2089821;28;20371;-83
2023/06/24 01:40:12;;;;;;;17.30;9.90;;;;;;;10.01;100.00;93907.97;2091856;28;20032;-84
2023/06/24 01:41:26;;;;;;;17.90;10.30;;;;;;;9.90;100.00;93905.38;2093918;28;20036;-81
2023/06/24 01:42:35;;;;;;;15.50;9.75;;;;;;;9.87;100.00;93906.13;2095478;28;20024;-84
2023/06/24 01:43:48;;;;;;;17.35;9.90;;;;;;;9.89;100.00;93906.53;2103767;28;20024;-82
2023/06/24 01:44:59;;;;;;;16.75;9.73;;;;;;;10.01;100.00;93906.06;2101798;28;20016;-82
2023/06/24 01:46:12;;;;;;;15.57;9.80;;;;;;;10.03;100.00;93901.06;2097909;28;20039;-85
2023/06/24 01:47:26;;;;;;;15.10;9.27;;;;;;;9.97;100.00;93899.22;2102715;28;20425;-82
2023/06/24 01:48:41;;;;;;;17.48;10.25;;;;;;;10.00;100.00;93899.19;2107459;28;20020;-83
2023/06/24 01:49:55;;;;;;;18.05;10.35;;;;;;;9.93;100.00;93899.25;2096819;28;20112;-81
2023/06/24 01:51:16;;;;;;;14.90;9.32;;;;;;;9.91;100.00;93900.78;2098903;28;20039;-82
2023/06/24 01:52:25;;;;;;;15.90;9.85;;;;;;;9.97;100.00;93904.56;2099286;28;20032;-82
2023/06/24 01:53:44;;;;;;;12.90;9.43;;;;;;;10.00;100.00;93899.19;2096167;28;20533;-82
2023/06/24 01:54:52;;;;;;;16.50;10.05;;;;;;;9.80;100.00;93911.53;2079163;28;20040;-84
2023/06/24 01:56:03;;;;;;;14.45;10.20;;;;;;;9.81;100.00;93897.03;2081702;28;20091;-81
2023/06/24 01:57:11;;;;;;;13.90;9.75;;;;;;;9.74;100.00;93907.75;2088313;28;20033;-81
2023/06/24 01:58:17;;;;;;;15.98;9.70;;;;;;;9.66;100.00;93906.25;2097504;28;20024;-84
2023/06/24 01:59:20;;;;;;;15.85;9.50;;;;;;;9.74;100.00;93908.50;2101184;28;20024;-83
2023/06/24 02:00:27;;;;;;;19.33;10.23;;;;;;;9.69;100.00;93900.91;2092078;28;20406;-83
2023/06/24 02:01:38;;;;;;;18.83;10.05;;;;;;;9.74;100.00;93910.41;2101246;28;20031;-85
2023/06/24 02:02:47;;;;;;;15.25;10.10;;;;;;;9.72;100.00;93916.16;2097566;28;20092;-82
2023/06/24 02:03:57;;;;;;;14.80;9.65;;;;;;;9.77;100.00;93905.06;2091742;28;20072;-82
2023/06/24 02:05:09;;;;;;;14.80;9.40;;;;;;;9.77;100.00;93905.06;2087030;28;20040;-82
2023/06/24 02:06:19;;;;;;;16.90;10.25;;;;;;;9.53;100.00;93912.06;2090770;28;20024;-84
2023/06/24 02:07:29;;;;;;;14.63;10.23;;;;;;;9.64;100.00;93909.31;2097310;28;20031;-83
2023/06/24 02:08:39;;;;;;;15.48;10.27;;;;;;;9.62;100.00;93910.88;2089383;28;20457;-82
2023/06/24 02:09:45;;;;;;;17.58;10.55;;;;;;;9.50;100.00;93910.16;2086020;28;20513;-84
2023/06/24 02:10:51;;;;;;;16.02;10.30;;;;;;;9.51;100.00;93908.25;2088824;28;20032;-83
2023/06/24 02:12:01;;;;;;;17.10;10.05;;;;;;;9.50;100.00;93914.75;2091757;28;20029;-83
2023/06/24 02:13:13;;;;;;;21.48;10.25;;;;;;;9.64;100.00;93908.56;2099525;28;20021;-82
2023/06/24 02:14:22;;;;;;;19.30;10.48;;;;;;;9.61;100.00;93914.69;2096052;28;20116;-81
2023/06/24 02:15:31;;;;;;;14.45;10.02;;;;;;;9.61;100.00;93910.09;2094964;28;20025;-83
2023/06/24 02:16:42;;;;;;;16.25;9.80;;;;;;;9.50;100.00;93910.16;2090097;28;20032;-85
2023/06/24 02:17:56;;;;;;;15.10;10.20;;;;;;;9.44;100.00;93910.94;2095617;28;20020;-84
2023/06/24 02:19:08;;;;;;;16.83;10.68;;;;;;;9.55;100.00;93901.75;2096355;28;20120;-85
2023/06/24 02:21:45;;;;;;;;;;;;;;;9.38;100.00;93899.16;2131129;27;20167;-73
2023/06/24 02:22:55;;;;;;;17.35;9.98;;;;;;;9.43;100.00;93896.09;2123094;27;19954;-73
2023/06/24 02:24:02;;;;;;;;;;;;;;;9.46;100.00;93903.31;2116224;28;20039;-74
2023/06/24 02:25:13;;;;;;;17.02;9.38;;;;;;;9.34;100.00;93907.19;2107444;28;19920;-75
2023/06/24 02:26:25;;;;;;;14.98;9.65;;;;;;;9.40;100.00;93900.31;2113266;27;20040;-74
2023/06/24 02:27:34;;;;;;;17.83;9.48;;;;;;;9.34;100.00;93907.19;2118988;28;20059;-75
2023/06/24 02:28:43;;;;;;;17.58;10.77;;;;;;;9.34;100.00;93902.59;2112731;27;20039;-75
2023/06/24 02:29:51;;;;;;;22.67;10.52;;;;;;;9.31;100.00;93903.41;2118536;28;20063;-76
2023/06/24 02:31:10;;;;;;;18.25;9.93;;;;;;;9.34;100.00;93899.16;2111824;27;20037;-76
2023/06/24 02:32:16;;;;;;;18.35;10.43;;;;;;;9.30;100.00;93895.75;2114410;27;20024;-75
2023/06/24 02:33:18;;;;;;;16.58;10.32;;;;;;;9.33;100.00;93895.75;2114795;27;20050;-75
2023/06/24 02:34:25;;;;;;;17.55;10.10;;;;;;;9.18;100.00;93902.31;2111934;27;20107;-77
2023/06/24 02:35:30;;;;;;;17.58;10.25;;;;;;;9.17;100.00;93900.75;2115070;28;20035;-76
2023/06/24 02:36:34;;;;;;;20.10;11.15;;;;;;;9.03;100.00;93898.91;2099222;28;20028;-75
2023/06/24 02:37:39;;;;;;;15.90;9.95;;;;;;;9.05;100.00;93895.88;2097269;28;20024;-75
2023/06/24 02:38:45;;;;;;;19.55;11.50;;;;;;;9.13;100.00;93902.72;2114141;27;20554;-75
2023/06/24 02:39:49;;;;;;;18.52;10.27;;;;;;;9.12;100.00;93901.16;2119047;28;20019;-75
2023/06/24 02:40:54;;;;;;;17.40;10.38;;;;;;;9.19;100.00;93908.41;2101027;28;20028;-76
2023/06/24 02:42:01;;;;;;;17.50;10.55;;;;;;;9.17;100.00;93900.00;2111301;27;20347;-75
2023/06/24 02:43:10;;;;;;;16.15;9.95;;;;;;;9.20;100.00;93907.25;2111204;28;20077;-76
2023/06/24 02:44:19;;;;;;;21.05;10.38;;;;;;;9.15;100.00;93904.97;2104338;28;20024;-77
2023/06/24 02:45:25;;;;;;;18.30;10.57;;;;;;;9.16;100.00;93907.25;2116393;27;20036;-76
2023/06/24 02:46:36;;;;;;;20.23;10.75;;;;;;;9.18;100.00;93910.31;2122100;27;20408;-75
2023/06/24 02:47:48;;;;;;;17.65;10.35;;;;;;;9.23;100.00;93901.13;2113770;27;20028;-76
2023/06/24 02:48:57;;;;;;;16.27;10.43;;;;;;;9.23;100.00;93901.13;2110159;28;20047;-76
2023/06/24 02:50:05;;;;;;;19.20;10.18;;;;;;;9.24;100.00;93906.06;2108901;28;20071;-76
2023/06/24 02:51:16;;;;;;;17.90;11.25;;;;;;;9.25;100.00;93894.25;2100638;28;20036;-74
2023/06/24 02:52:28;;;;;;;19.17;10.88;;;;;;;9.23;100.00;93896.56;2110529;28;20228;-75
2023/06/24 02:53:38;;;;;;;23.45;10.80;;;;;;;9.21;100.00;93895.41;2100306;28;20055;-76
2023/06/24 02:54:59;;;;;;;15.68;9.95;;;;;;;9.17;100.00;93895.44;2113141;27;20031;-75
2023/06/24 02:56:10;;;;;;;17.15;9.80;;;;;;;9.16;100.00;93893.16;2120592;27;20027;-76
2023/06/24 02:57:21;;;;;;;21.48;10.90;;;;;;;9.06;100.00;93892.06;2109618;28;20058;-76
2023/06/24 02:58:31;;;;;;;18.92;10.35;;;;;;;9.13;100.00;93888.59;2102746;28;20122;-75
2023/06/24 02:59:40;;;;;;;16.45;10.38;;;;;;;9.00;100.00;93899.69;2104105;28;20074;-76
2023/06/24 03:00:49;;;;;;;20.10;10.93;;;;;;;9.02;100.00;93907.31;2110889;27;20096;-76
2023/06/24 03:01:59;;;;;;;16.92;10.18;;;;;;;9.05;100.00;93899.28;2111515;28;20042;-75
2023/06/24 03:03:08;;;;;;;17.50;10.73;;;;;;;9.07;100.00;93899.66;2100453;28;20518;-75
2023/06/24 03:04:14;;;;;;;14.05;9.85;;;;;;;9.03;100.00;93895.47;2103570;27;20510;-75
2023/06/24 03:05:21;;;;;;;16.27;9.95;;;;;;;8.98;100.00;93896.63;2115003;27;20069;-76
2023/06/24 03:06:31;;;;;;;19.10;10.20;;;;;;;8.94;100.00;93898.56;2108448;28;20024;-74
2023/06/24 03:07:40;;;;;;;19.70;10.23;;;;;;;8.94;100.00;93895.13;2109793;28;20028;-75
2023/06/24 03:08:45;;;;;;;14.70;10.55;;;;;;;8.89;100.00;93904.28;2110347;28;20031;-75
2023/06/24 03:09:54;;;;;;;21.17;10.00;;;;;;;8.91;100.00;93902.00;2110710;28;20030;-74
2023/06/24 03:11:02;;;;;;;17.55;10.30;;;;;;;8.99;100.00;93900.81;2097654;28;20036;-76
2023/06/24 03:12:10;;;;;;;13.85;10.05;;;;;;;8.91;100.00;93904.69;2102184;28;20470;-74
2023/06/24 03:13:16;;;;;;;19.95;10.48;;;;;;;9.04;100.00;93900.44;2104055;27;20031;-75
2023/06/24 03:14:23;;;;;;;19.67;10.70;;;;;;;9.17;100.00;93900.00;2103638;28;20028;-75
2023/06/24 03:15:30;;;;;;;17.60;10.20;;;;;;;9.05;100.00;93895.88;2101463;28;20044;-75
2023/06/24 03:16:38;;;;;;;16.50;10.68;;;;;;;9.05;100.00;93904.63;2102825;28;20119;-74
2023/06/24 03:17:44;;;;;;;16.85;10.65;;;;;;;9.03;100.00;93904.25;2103091;28;20028;-76
2023/06/24 03:18:52;;;;;;;20.77;11.07;;;;;;;9.03;100.00;93901.56;2118211;28;20118;-77
2023/06/24 03:20:00;;;;;;;17.13;10.85;;;;;;;8.95;100.00;93902.75;2109366;28;20119;-75
2023/06/24 03:21:08;;;;;;;17.38;10.35;;;;;;;8.89;100.00;93904.28;2102465;28;20067;-75
2023/06/24 03:22:17;;;;;;;19.70;10.77;;;;;;;8.92;100.00;93902.78;2108083;27;20032;-75
2023/06/24 03:23:19;;;;;;;15.35;10.20;;;;;;;8.99;100.00;93913.41;2112233;27;20028;-75
2023/06/24 03:24:25;;;;;;;18.95;10.50;;;;;;;8.95;100.00;93908.06;2102330;28;20043;-75
2023/06/24 03:25:33;;;;;;;19.60;10.73;;;;;;;8.88;100.00;93912.69;2096357;28;20039;-76
2023/06/24 03:26:46;;;;;;;20.45;11.10;;;;;;;8.97;100.00;93913.78;2100833;28;20040;-76
2023/06/24 03:27:51;;;;;;;18.25;10.60;;;;;;;9.04;100.00;93910.34;2114016;27;20082;-76
2023/06/24 03:29:11;;;;;;;20.08;11.43;;;;;;;9.08;100.00;93906.50;2114196;28;20714;-76
2023/06/24 03:30:14;;;;;;;21.50;11.25;;;;;;;9.10;100.00;93911.47;2104832;28;20417;-75
2023/06/24 03:31:23;;;;;;;18.67;11.05;;;;;;;8.95;100.00;93920.66;2109282;28;20080;-75
2023/06/24 03:32:28;;;;;;;16.60;10.35;;;;;;;8.97;100.00;93913.03;2099977;28;20129;-75
2023/06/24 03:33:32;;;;;;;20.30;11.23;;;;;;;8.91;100.00;93914.56;2097204;28;20119;-75
2023/06/24 03:34:37;;;;;;;21.95;11.10;;;;;;;8.93;100.00;93917.63;2104992;28;20540;-76
2023/06/24 03:35:42;;;;;;;21.10;10.82;;;;;;;8.89;100.00;93914.94;2112409;28;20034;-75
2023/06/24 03:36:50;;;;;;;22.15;10.65;;;;;;;9.00;100.00;93920.25;2109560;28;20039;-75
2023/06/24 03:37:58;;;;;;;23.40;11.30;;;;;;;9.02;100.00;93912.63;2109986;28;20032;-75
2023/06/24 03:39:03;;;;;;;19.02;11.48;;;;;;;9.03;100.00;93920.25;2099727;28;20024;-76
2023/06/24 03:40:11;;;;;;;18.00;11.20;;;;;;;9.05;100.00;93920.63;2098915;28;20032;-75
2023/06/24 03:41:21;;;;;;;16.25;10.30;;;;;;;9.08;100.00;93922.50;2108043;27;20489;-76
2023/06/24 03:42:29;;;;;;;25.75;11.75;;;;;;;9.03;100.00;93922.16;2101414;28;20036;-76
2023/06/24 03:43:38;;;;;;;22.80;11.23;;;;;;;8.91;100.00;93923.34;2102080;28;20037;-75
2023/06/24 03:44:48;;;;;;;23.73;11.60;;;;;;;8.96;100.00;93920.28;2115663;27;20063;-77
2023/06/24 03:45:56;;;;;;;19.10;10.75;;;;;;;8.98;100.00;93920.63;2110057;28;20024;-76
2023/06/24 03:47:07;;;;;;;25.67;11.02;;;;;;;9.02;100.00;93923.31;2105099;28;20496;-76
2023/06/24 03:48:11;;;;;;;;;;;;;;;8.98;100.00;93923.31;2099585;28;20097;-76
2023/06/24 03:49:20;;;;;;;18.02;10.43;;;;;;;8.98;100.00;93923.31;2097026;28;20011;-78
2023/06/24 03:50:42;;;;;;;22.23;10.68;;;;;;;9.07;100.00;93921.00;2103192;28;20028;-77
2023/06/24 03:51:46;;;;;;;18.13;10.50;;;;;;;9.07;100.00;93923.66;2101274;28;20359;-75
2023/06/24 03:52:53;;;;;;;20.85;10.95;;;;;;;9.04;100.00;93919.13;2095784;28;20037;-76
2023/06/24 03:53:58;;;;;;;15.18;10.55;;;;;;;9.02;100.00;93913.41;2089502;28;20048;-76
2023/06/24 03:55:04;;;;;;;21.42;10.70;;;;;;;8.96;100.00;93916.84;2109775;27;20959;-76
2023/06/24 03:56:09;;;;;;;20.20;11.13;;;;;;;9.06;100.00;93921.38;2111899;28;20031;-75
2023/06/24 03:57:17;;;;;;;17.30;10.95;;;;;;;9.02;100.00;93910.72;2103022;28;20032;-76
2023/06/24 03:58:23;;;;;;;16.55;10.20;;;;;;;9.06;100.00;93919.47;2092900;28;20032;-76
2023/06/24 03:59:27;;;;;;;19.45;11.13;;;;;;;8.98;100.00;93917.22;2094408;28;20032;-76
2023/06/24 04:00:33;;;;;;;20.42;10.40;;;;;;;9.03;100.00;93912.25;2100943;28;20816;-77
2023/06/24 04:01:36;;;;;;;19.63;10.88;;;;;;;9.08;100.00;93917.16;2109240;28;20477;-76
2023/06/24 04:02:42;;;;;;;18.40;10.77;;;;;;;9.12;100.00;93917.16;2105787;28;20145;-76
2023/06/24 04:04:06;;;;;;;21.52;10.43;;;;;;;9.05;100.00;93912.63;2115825;27;20030;-76
2023/06/24 04:05:11;;;;;;;17.02;10.57;;;;;;;9.09;100.00;93907.28;2115605;27;20698;-75
2023/06/24 04:06:19;;;;;;;18.23;10.80;;;;;;;9.10;100.00;93924.81;2107900;28;20173;-75
2023/06/24 04:07:31;;;;;;;19.45;10.90;;;;;;;9.05;100.00;93920.63;2101338;28;20127;-76
2023/06/24 04:08:43;;;;;;;19.60;10.90;;;;;;;9.14;100.00;93916.81;2098987;28;20028;-76
2023/06/24 04:09:52;;;;;;;22.02;11.18;;;;;;;9.18;100.00;93926.31;2104377;28;20043;-75
2023/06/24 04:11:03;;;;;;;17.67;10.80;;;;;;;9.18;100.00;93914.88;2101503;27;20036;-76
2023/06/24 04:12:11;;;;;;;20.25;11.23;;;;;;;9.13;100.00;93925.91;2114048;27;20069;-75
2023/06/24 04:13:15;;;;;;;18.98;10.40;;;;;;;9.18;100.00;93925.56;2110137;28;20047;-75
2023/06/24 04:14:20;;;;;;;20.75;10.93;;;;;;;9.17;100.00;93922.09;2104546;28;20015;-75
2023/06/24 04:15:29;;;;;;;17.92;9.88;;;;;;;9.17;100.00;93924.75;2103587;28;20024;-77
2023/06/24 04:16:37;;;;;;;21.25;10.90;;;;;;;9.22;100.00;93929.72;2105540;27;20032;-76
2023/06/24 04:17:48;;;;;;;15.60;10.55;;;;;;;9.25;100.00;93926.25;2113006;27;20038;-76
2023/06/24 04:18:53;;;;;;;22.67;10.55;;;;;;;9.27;100.00;93933.91;2111415;28;20390;-75
2023/06/24 04:20:06;;;;;;;19.60;10.80;;;;;;;9.15;100.00;93932.41;2112029;27;20093;-76
2023/06/24 04:21:14;;;;;;;15.68;10.27;;;;;;;9.25;100.00;93930.84;2109688;27;20124;-75
2023/06/24 04:22:25;;;;;;;22.73;11.30;;;;;;;9.34;100.00;93929.28;2099095;28;20043;-76
2023/06/24 04:23:30;;;;;;;20.27;10.63;;;;;;;9.38;100.00;93926.59;2100084;28;20139;-75
2023/06/24 04:24:39;;;;;;;21.60;11.82;;;;;;;9.41;100.00;93923.16;2110755;27;20032;-76
2023/06/24 04:25:46;;;;;;;20.08;11.55;;;;;;;9.40;100.00;93929.66;2099277;28;20036;-75
2023/06/24 04:26:50;;;;;;;22.40;11.13;;;;;;;9.43;100.00;93926.19;2090922;28;20036;-75
2023/06/24 04:27:58;;;;;;;20.38;10.40;;;;;;;9.46;100.00;93930.00;2096301;28;20134;-75
2023/06/24 04:29:04;;;;;;;22.20;11.10;;;;;;;9.36;100.00;93930.81;2093815;28;20028;-75
2023/06/24 04:30:12;;;;;;;19.45;11.63;;;;;;;9.39;100.00;93930.03;2093813;28;20043;-75
2023/06/24 04:31:17;;;;;;;18.60;11.15;;;;;;;9.44;100.00;93932.28;2101087;27;20035;-75
2023/06/24 04:32:24;;;;;;;21.80;11.73;;;;;;;9.47;100.00;93926.94;2112094;27;20024;-75
2023/06/24 04:33:30;;;;;;;22.95;11.75;;;;;;;9.54;100.00;93934.94;2103835;28;20024;-78
2023/06/24 04:34:34;;;;;;;20.60;11.02;;;;;;;9.54;100.00;93931.50;2096995;28;20445;-76
2023/06/24 04:35:39;;;;;;;22.92;11.40;;;;;;;9.58;100.00;93930.34;2103634;27;20031;-75
2023/06/24 04:36:46;;;;;;;19.23;11.50;;;;;;;9.59;100.00;93925.75;2101802;28;20039;-72
2023/06/24 04:37:50;;;;;;;20.73;11.07;;;;;;;9.63;100.00;93928.41;2097244;28;20465;-78
2023/06/24 04:38:57;;;;;;;21.52;11.43;;;;;;;9.71;100.00;93935.25;2090544;28;20076;-76
2023/06/24 04:40:04;;;;;;;16.92;10.95;;;;;;;9.72;100.00;93924.16;2093261;28;20037;-75
2023/06/24 04:41:11;;;;;;;21.52;11.45;;;;;;;9.76;100.00;93934.81;2097208;28;20044;-76
2023/06/24 04:42:18;;;;;;;18.27;11.05;;;;;;;9.75;100.00;93927.97;2103855;28;20032;-75
2023/06/24 04:43:24;;;;;;;20.13;11.60;;;;;;;9.78;100.00;93929.84;2096400;28;20031;-74
2023/06/24 04:44:26;;;;;;;22.70;11.75;;;;;;;9.81;100.00;93929.81;2092114;28;20127;-75
2023/06/24 04:45:28;;;;;;;17.70;11.10;;;;;;;9.75;100.00;93941.31;2092416;28;20039;-75
2023/06/24 04:46:35;;;;;;;18.38;11.02;;;;;;;9.87;100.00;93940.09;2106639;27;20034;-75
2023/06/24 04:47:38;;;;;;;20.10;11.15;;;;;;;9.84;100.00;93934.41;2110967;27;20455;-76
2023/06/24 04:48:44;;;;;;;21.13;11.38;;;;;;;9.87;100.00;93940.09;2101766;28;20028;-75
2023/06/24 04:49:51;;;;;;;21.58;11.73;;;;;;;9.96;100.00;93938.50;2105890;27;20501;-75
2023/06/24 04:50:55;;;;;;;22.50;11.70;;;;;;;9.93;100.00;93939.31;2100438;28;20032;-74
2023/06/24 04:52:07;;;;;;;20.38;11.88;;;;;;;9.99;100.00;93940.41;2097303;28;20027;-75
2023/06/24 04:53:13;;;;;;;21.70;11.68;;;;;;;9.99;100.00;93943.06;2105479;27;20586;-75
2023/06/24 04:54:29;;;;;;;19.73;11.48;;;;;;;10.04;100.00;93942.66;2114388;27;20074;-75
2023/06/24 04:55:35;;;;;;;17.13;11.75;;;;;;;10.04;100.00;93944.56;2111043;28;20394;-74
2023/06/24 04:56:48;;;;;;;23.40;12.18;;;;;;;10.08;100.00;93946.06;2104587;27;20043;-74
2023/06/24 04:57:53;;;;;;;20.75;12.30;;;;;;;10.06;100.00;93945.72;2120977;27;20038;-76
2023/06/24 04:58:59;;;;;;;21.20;11.40;;;;;;;10.16;100.00;93946.78;2109872;28;20028;-75
2023/06/24 05:00:05;;;;;;;23.83;12.80;;;;;;;10.16;100.00;93938.78;2098899;28;20032;-74
2023/06/24 05:01:11;;;;;;;21.05;12.20;;;;;;;10.24;100.00;93945.63;2093517;28;20032;-77
2023/06/24 05:02:18;;;;;;;22.35;11.88;;;;;;;10.28;100.00;93938.34;2104956;27;20153;-76
2023/06/24 05:03:19;;;;;;;16.25;11.15;;;;;;;10.28;100.00;93942.94;2109631;27;20019;-76
2023/06/24 05:04:20;;;;;;;27.88;12.15;;;;;;;10.28;100.00;93945.59;2109970;28;20031;-75
2023/06/24 05:05:21;;;;;;;23.15;11.88;;;;;;;10.32;100.00;93946.34;2102507;28;20073;-75
2023/06/24 05:06:23;;;;;;;19.15;11.05;;;;;;;10.38;100.00;93942.06;2119675;27;20057;-75
2023/06/24 05:07:24;;;;;;;19.38;11.82;;;;;;;10.41;100.00;93943.22;2108487;28;20114;-75
2023/06/24 05:08:25;;;;;;;25.73;11.77;;;;;;;10.45;100.00;93944.69;2103281;28;20390;-75
2023/06/24 05:09:26;;;;;;;18.00;11.43;;;;;;;10.47;100.00;93944.31;2101379;28;20437;-75
2023/06/24 05:10:27;;;;;;;23.27;12.05;;;;;;;10.47;100.00;93938.94;2094552;28;20025;-74
2023/06/24 05:11:28;;;;;;;19.33;11.88;;;;;;;10.53;100.00;93946.16;2091622;28;20060;-75
2023/06/24 05:12:29;;;;;;;21.58;11.60;;;;;;;10.57;100.00;93943.44;2101183;28;20033;-75
2023/06/24 05:13:30;;;;;;;21.25;11.90;;;;;;;10.62;100.00;93948.38;2093162;28;20036;-75
2023/06/24 05:14:34;;;;;;;17.73;10.77;;;;;;;10.64;100.00;93947.97;2106734;28;20035;-75
2023/06/24 05:15:36;;;;;;;18.85;11.75;;;;;;;10.67;100.00;93950.63;2103707;28;20131;-75
2023/06/24 05:16:39;;;;;;;19.67;11.93;;;;;;;10.73;100.00;93950.97;2091009;28;20037;-75
2023/06/24 05:17:43;;;;;;;22.20;11.82;;;;;;;10.71;100.00;93953.25;2104326;28;20136;-76
2023/06/24 05:18:45;;;;;;;20.70;10.88;;;;;;;10.76;100.00;93947.50;2111906;28;20040;-76